Time;durP1;ratioP1;P1;durP2;ratioP2;P2;SDS_P1;SDS_P2;PMS_P1;PMS_P2;Temp;Humidity;BMP_temperature;BMP_pressure;BME280_temperature;BME280_humidity;BME280_pressure;Samples;Min_cycle;Max_cycle;Signal;HPM_P1;HPM_P2
2021/07/15 00:02:21;;;;;;;0.93;0.20;;;15.90;99.90;;;;;;5052050;28;20021;-67
2021/07/15 00:04:47;;;;;;;0.30;0.30;;;16.00;99.90;;;;;;5051893;28;20082;-67
2021/07/15 00:07:15;;;;;;;0.20;0.20;;;16.00;99.90;;;;;;5050785;28;20094;-67
2021/07/15 00:09:42;;;;;;;0.52;0.30;;;16.00;99.90;;;;;;5050694;28;20202;-67
2021/07/15 00:12:11;;;;;;;0.10;0.10;;;16.00;99.90;;;;;;5051885;28;20087;-67
2021/07/15 00:14:37;;;;;;;1.02;0.22;;;16.00;99.90;;;;;;5049717;28;20032;-67
2021/07/15 00:17:04;;;;;;;0.55;0.10;;;16.00;99.90;;;;;;5050917;28;20039;-67
2021/07/15 00:19:30;;;;;;;0.30;0.30;;;16.00;99.90;;;;;;5050708;28;20024;-67
2021/07/15 00:21:57;;;;;;;0.17;0.17;;;15.90;99.90;;;;;;5050504;28;20529;-67
2021/07/15 00:24:24;;;;;;;0.65;0.20;;;15.90;99.90;;;;;;5050162;28;20036;-68
2021/07/15 00:26:50;;;;;;;0.28;0.10;;;15.80;99.90;;;;;;5049932;28;20025;-68
2021/07/15 00:29:17;;;;;;;1.17;0.30;;;15.80;99.90;;;;;;5050443;28;20376;-68
2021/07/15 00:31:42;;;;;;;0.30;0.30;;;15.70;99.90;;;;;;5050491;28;20028;-67
2021/07/15 00:34:08;;;;;;;0.10;0.10;;;15.60;99.90;;;;;;5050959;28;20048;-68
2021/07/15 00:36:34;;;;;;;0.20;0.20;;;15.50;99.90;;;;;;5050581;28;20025;-67
2021/07/15 00:39:00;;;;;;;0.25;0.20;;;15.40;99.90;;;;;;5051231;28;20053;-67
2021/07/15 00:41:26;;;;;;;0.80;0.20;;;15.30;99.90;;;;;;5050383;28;20071;-68
2021/07/15 00:43:51;;;;;;;0.28;0.10;;;15.20;99.90;;;;;;5051252;28;20024;-68
2021/07/15 00:46:17;;;;;;;0.13;0.10;;;15.10;99.90;;;;;;5049566;28;20025;-67
2021/07/15 00:48:43;;;;;;;0.10;0.10;;;15.00;99.90;;;;;;5050581;28;20064;-67
2021/07/15 00:51:09;;;;;;;0.85;0.20;;;15.00;99.90;;;;;;5050831;28;20099;-68
2021/07/15 00:53:36;;;;;;;0.47;0.20;;;15.00;99.90;;;;;;5039284;28;20087;-67
2021/07/15 00:56:02;;;;;;;5.55;0.25;;;14.90;99.90;;;;;;5051383;28;20056;-67
2021/07/15 00:58:30;;;;;;;0.30;0.10;;;14.90;99.90;;;;;;5050938;28;20032;-66
2021/07/15 01:00:56;;;;;;;1.00;0.17;;;14.90;99.90;;;;;;5048579;28;20463;-67
2021/07/15 01:03:23;;;;;;;0.20;0.20;;;14.90;99.90;;;;;;5050970;28;20029;-67
2021/07/15 01:05:54;;;;;;;1.45;0.40;;;14.90;99.90;;;;;;5050967;28;20029;-67
2021/07/15 01:08:20;;;;;;;0.55;0.10;;;14.90;99.90;;;;;;5051031;28;20025;-67
2021/07/15 01:11:06;;;;;;;1.00;0.15;;;14.90;99.90;;;;;;5049785;28;20067;-67
2021/07/15 01:13:59;;;;;;;0.20;0.20;;;14.90;99.90;;;;;;5049752;28;20061;-67
2021/07/15 01:16:38;;;;;;;0.57;0.20;;;14.90;99.90;;;;;;5050743;28;20032;-67
2021/07/15 01:19:39;;;;;;;0.30;0.20;;;14.90;99.90;;;;;;5050740;28;20071;-67
2021/07/15 01:22:17;;;;;;;0.57;0.15;;;14.90;99.90;;;;;;5050389;28;20029;-67
2021/07/15 01:25:02;;;;;;;0.10;0.10;;;14.90;99.90;;;;;;5049599;28;20028;-67
2021/07/15 01:27:46;;;;;;;4.95;0.35;;;14.90;99.90;;;;;;5050804;28;20378;-67
2021/07/15 01:30:23;;;;;;;1.38;0.20;;;15.00;99.90;;;;;;5054461;28;20036;-67
2021/07/15 01:33:20;;;;;;;0.47;0.10;;;15.00;99.90;;;;;;5054336;28;20029;-67
2021/07/15 01:35:49;;;;;;;0.82;0.10;;;15.00;99.90;;;;;;5044111;28;20044;-67
2021/07/15 01:38:20;;;;;;;1.40;0.10;;;15.00;99.90;;;;;;5054004;28;20120;-67
2021/07/15 01:41:01;;;;;;;0.22;0.20;;;15.00;99.90;;;;;;5052595;28;20036;-67
2021/07/15 01:43:36;;;;;;;0.40;0.20;;;15.00;99.90;;;;;;5052996;28;20033;-68
2021/07/15 01:46:03;;;;;;;0.20;0.20;;;14.90;99.90;;;;;;5053317;28;20040;-67
2021/07/15 01:48:30;;;;;;;1.98;0.20;;;14.90;99.90;;;;;;5052795;28;20050;-68
2021/07/15 01:50:56;;;;;;;1.10;0.40;;;15.00;99.90;;;;;;5054463;28;20029;-67
2021/07/15 01:53:22;;;;;;;0.82;0.10;;;14.90;99.90;;;;;;5053719;28;20029;-67
2021/07/15 01:55:48;;;;;;;0.43;0.10;;;14.90;99.90;;;;;;5053226;28;20059;-67
2021/07/15 01:58:15;;;;;;;0.28;0.28;;;14.90;99.90;;;;;;5054371;28;20025;-67
2021/07/15 02:00:41;;;;;;;0.45;0.10;;;14.90;99.90;;;;;;5053218;28;20424;-67
2021/07/15 02:03:07;;;;;;;0.10;0.10;;;14.90;99.90;;;;;;5054118;28;20458;-67
2021/07/15 02:05:34;;;;;;;0.00;0.00;;;14.90;99.90;;;;;;5053480;28;20087;-67
2021/07/15 02:08:01;;;;;;;0.10;0.10;;;14.90;99.90;;;;;;5053941;28;20116;-67
2021/07/15 02:10:28;;;;;;;0.77;0.10;;;14.80;99.90;;;;;;5053124;28;20036;-67
2021/07/15 02:12:54;;;;;;;0.20;0.10;;;14.80;99.90;;;;;;5054121;28;20039;-67
2021/07/15 02:15:23;;;;;;;0.00;0.00;;;14.80;99.90;;;;;;5053196;28;20029;-67
2021/07/15 02:17:49;;;;;;;0.10;0.10;;;14.80;99.90;;;;;;5053167;28;20161;-67
2021/07/15 02:20:17;;;;;;;0.47;0.10;;;14.90;99.90;;;;;;5053907;28;20086;-67
2021/07/15 02:22:44;;;;;;;0.30;0.10;;;14.80;99.90;;;;;;5052460;28;20033;-67
2021/07/15 02:25:11;;;;;;;4.18;0.43;;;14.80;99.90;;;;;;5053365;28;20029;-67
2021/07/15 02:27:37;;;;;;;0.75;0.10;;;14.80;99.90;;;;;;5052709;28;20036;-67
2021/07/15 02:30:09;;;;;;;0.68;0.10;;;14.80;99.90;;;;;;5053811;28;20104;-67
2021/07/15 02:32:35;;;;;;;0.68;0.50;;;14.80;99.90;;;;;;5052505;28;20036;-67
2021/07/15 02:35:06;;;;;;;1.65;0.10;;;14.80;99.90;;;;;;5053010;28;20041;-68
2021/07/15 02:37:41;;;;;;;0.95;0.10;;;14.80;99.90;;;;;;5052461;28;20120;-68
2021/07/15 02:40:12;;;;;;;2.05;0.20;;;14.80;99.90;;;;;;5053390;28;20037;-68
2021/07/15 02:42:40;;;;;;;0.10;0.10;;;14.80;99.90;;;;;;5051976;28;20029;-67
2021/07/15 02:45:07;;;;;;;0.00;0.00;;;14.80;99.90;;;;;;5053089;28;20474;-68
2021/07/15 02:47:33;;;;;;;0.10;0.08;;;14.90;99.90;;;;;;5052201;28;20048;-67
2021/07/15 02:49:59;;;;;;;0.10;0.10;;;14.90;99.90;;;;;;5052957;28;20466;-68
2021/07/15 02:52:25;;;;;;;0.55;0.00;;;14.90;99.90;;;;;;5052879;28;20036;-67
2021/07/15 02:54:51;;;;;;;0.10;0.10;;;14.90;99.90;;;;;;5051831;28;20049;-67
2021/07/15 02:57:33;;;;;;;0.03;0.00;;;14.80;99.90;;;;;;5052929;28;20047;-67
2021/07/15 03:00:11;;;;;;;1.58;0.05;;;14.90;99.90;;;;;;5052442;28;20107;-67
2021/07/15 03:02:55;;;;;;;0.00;0.00;;;14.90;99.90;;;;;;5052064;28;20021;-68
2021/07/15 03:05:25;;;;;;;0.65;0.10;;;14.80;99.90;;;;;;5052872;28;20373;-68
2021/07/15 03:08:03;;;;;;;0.30;0.10;;;14.90;99.90;;;;;;5052740;28;20028;-67
2021/07/15 03:10:31;;;;;;;0.45;0.10;;;14.90;99.90;;;;;;5051783;28;20033;-68
2021/07/15 03:12:57;;;;;;;0.17;0.10;;;14.90;99.90;;;;;;5052217;28;20028;-67
2021/07/15 03:15:25;;;;;;;1.65;0.35;;;14.90;99.90;;;;;;5052050;28;20029;-67
2021/07/15 03:17:51;;;;;;;0.00;0.00;;;14.90;99.90;;;;;;5052039;28;20044;-67
2021/07/15 03:20:31;;;;;;;0.08;0.00;;;14.90;99.90;;;;;;5052394;28;20056;-67
2021/07/15 03:23:01;;;;;;;0.30;0.28;;;14.90;99.90;;;;;;5052471;28;20118;-68
2021/07/15 03:25:28;;;;;;;0.10;0.10;;;14.90;99.90;;;;;;5051756;28;20045;-68
2021/07/15 03:27:57;;;;;;;0.65;0.10;;;14.90;99.90;;;;;;5051553;28;20025;-67
2021/07/15 03:30:27;;;;;;;0.20;0.10;;;14.90;99.90;;;;;;5052388;28;20044;-67
2021/07/15 03:32:55;;;;;;;2.65;0.10;;;15.00;99.90;;;;;;5044841;28;20032;-67
2021/07/15 03:35:22;;;;;;;0.10;0.08;;;15.00;99.90;;;;;;5052123;28;20461;-68
2021/07/15 03:37:49;;;;;;;0.57;0.10;;;15.00;99.90;;;;;;5051255;28;20201;-68
2021/07/15 03:40:26;;;;;;;0.28;0.00;;;15.00;99.90;;;;;;5051768;28;20377;-68
2021/07/15 03:42:53;;;;;;;0.73;0.10;;;15.00;99.90;;;;;;5051284;28;20028;-68
2021/07/15 03:45:21;;;;;;;0.43;0.20;;;15.00;99.90;;;;;;5051486;28;20433;-68
2021/07/15 03:47:51;;;;;;;2.80;0.80;;;15.00;99.90;;;;;;5049215;28;20055;-68
2021/07/15 03:50:24;;;;;;;1.25;0.25;;;15.00;99.90;;;;;;5052269;28;20033;-68
2021/07/15 03:52:56;;;;;;;0.08;0.08;;;15.00;99.90;;;;;;5051320;28;20035;-69
2021/07/15 03:55:25;;;;;;;0.38;0.20;;;14.90;99.90;;;;;;5051596;28;20057;-69
2021/07/15 03:57:52;;;;;;;0.10;0.10;;;15.00;99.90;;;;;;5043398;28;20061;-69
2021/07/15 04:00:23;;;;;;;1.10;0.10;;;15.00;99.90;;;;;;5051928;28;20029;-68
2021/07/15 04:02:53;;;;;;;1.75;0.10;;;15.00;99.90;;;;;;5051115;28;20096;-68
2021/07/15 04:05:21;;;;;;;0.20;0.10;;;15.10;99.90;;;;;;5051764;28;20028;-69
2021/07/15 04:07:50;;;;;;;0.40;0.05;;;15.10;99.90;;;;;;5050767;28;20865;-68
2021/07/15 04:10:17;;;;;;;2.30;0.03;;;15.10;99.90;;;;;;5051545;28;20547;-68
2021/07/15 04:12:44;;;;;;;1.08;0.10;;;15.10;99.90;;;;;;5050658;28;20021;-68
2021/07/15 04:15:13;;;;;;;0.70;0.15;;;15.10;99.90;;;;;;5051285;28;20045;-69
2021/07/15 04:17:54;;;;;;;0.63;0.17;;;15.10;99.90;;;;;;5050542;28;20064;-69
2021/07/15 04:20:22;;;;;;;3.03;0.73;;;15.20;99.90;;;;;;5051344;28;20048;-68
2021/07/15 04:22:53;;;;;;;0.38;0.10;;;15.20;99.90;;;;;;5050690;28;20032;-69
2021/07/15 04:25:21;;;;;;;0.63;0.15;;;15.20;99.90;;;;;;5047346;28;20033;-68
2021/07/15 04:27:49;;;;;;;1.83;0.30;;;15.20;99.90;;;;;;5050098;28;20102;-68
2021/07/15 04:30:16;;;;;;;0.22;0.10;;;15.30;99.90;;;;;;5051114;28;20021;-67
2021/07/15 04:32:57;;;;;;;0.20;0.20;;;15.30;99.90;;;;;;5050779;28;20021;-68
2021/07/15 04:35:25;;;;;;;0.95;0.13;;;15.40;99.90;;;;;;5045993;28;20394;-68
2021/07/15 04:37:51;;;;;;;1.75;0.10;;;15.40;99.90;;;;;;5050037;28;20664;-68
2021/07/15 04:40:20;;;;;;;1.08;0.20;;;15.40;99.90;;;;;;5049806;28;20028;-69
2021/07/15 04:42:49;;;;;;;0.13;0.10;;;15.50;99.90;;;;;;5048902;28;20021;-69
2021/07/15 04:45:16;;;;;;;0.25;0.10;;;15.50;99.90;;;;;;5048663;28;20378;-68
2021/07/15 04:47:44;;;;;;;0.30;0.10;;;15.50;99.90;;;;;;5048565;28;20382;-69
2021/07/15 04:50:13;;;;;;;0.65;0.30;;;15.50;99.90;;;;;;5049113;28;20116;-68
2021/07/15 04:52:40;;;;;;;1.10;0.30;;;15.50;99.90;;;;;;5049287;28;20028;-68
2021/07/15 04:55:07;;;;;;;1.00;0.60;;;15.50;99.90;;;;;;5049083;28;20056;-68
2021/07/15 04:57:35;;;;;;;0.32;0.20;;;15.60;99.90;;;;;;5047339;28;20037;-69
2021/07/15 05:00:01;;;;;;;0.93;0.30;;;15.60;99.90;;;;;;5051777;28;20033;-68
2021/07/15 05:02:27;;;;;;;0.20;0.20;;;15.60;99.90;;;;;;5053495;28;20076;-68
2021/07/15 05:04:53;;;;;;;1.00;0.20;;;15.60;99.90;;;;;;5052967;28;20045;-69
2021/07/15 05:07:19;;;;;;;3.33;0.35;;;15.60;99.90;;;;;;5054432;28;20032;-69
2021/07/15 05:09:44;;;;;;;1.92;0.30;;;15.60;99.90;;;;;;5053916;28;20027;-69
2021/07/15 05:12:10;;;;;;;1.25;0.60;;;15.60;99.90;;;;;;5055074;28;20386;-69
2021/07/15 05:14:41;;;;;;;1.45;0.45;;;15.70;99.90;;;;;;5054581;28;20029;-69
2021/07/15 05:17:10;;;;;;;;;;;15.70;99.90;;;;;;5054994;28;20103;-68
2021/07/15 05:19:36;;;;;;;1.27;0.47;;;15.70;99.90;;;;;;5053895;28;19909;-69
2021/07/15 05:22:03;;;;;;;2.33;0.50;;;15.70;99.90;;;;;;5054962;28;20029;-69
2021/07/15 05:24:29;;;;;;;0.95;0.45;;;15.80;99.90;;;;;;5048056;28;20045;-67
2021/07/15 05:26:54;;;;;;;0.77;0.45;;;15.80;99.90;;;;;;5051064;28;20033;-67
2021/07/15 05:29:20;;;;;;;3.30;0.50;;;15.90;99.90;;;;;;5053371;28;20023;-68
2021/07/15 05:31:46;;;;;;;0.50;0.30;;;15.90;99.90;;;;;;5053966;28;20031;-67
2021/07/15 05:34:12;;;;;;;0.70;0.30;;;15.90;99.90;;;;;;5054092;28;20061;-68
2021/07/15 05:36:37;;;;;;;2.38;0.45;;;15.90;99.90;;;;;;5052628;28;20045;-68
2021/07/15 05:39:05;;;;;;;0.40;0.25;;;15.90;99.90;;;;;;5054011;28;20028;-68
2021/07/15 05:41:31;;;;;;;0.70;0.30;;;16.00;99.90;;;;;;5054435;28;20032;-68
2021/07/15 05:43:56;;;;;;;0.20;0.15;;;16.00;99.90;;;;;;5054160;28;20104;-68
2021/07/15 05:46:22;;;;;;;0.88;0.32;;;16.10;99.90;;;;;;5049862;28;20436;-70
2021/07/15 05:48:47;;;;;;;1.30;0.47;;;16.10;99.90;;;;;;5053239;28;20029;-68
2021/07/15 05:51:13;;;;;;;1.00;0.22;;;16.10;99.90;;;;;;5054005;28;20025;-71
2021/07/15 05:53:39;;;;;;;0.55;0.20;;;16.10;99.90;;;;;;5052546;28;20462;-70
2021/07/15 05:56:04;;;;;;;0.80;0.25;;;16.20;99.90;;;;;;5053460;28;20049;-71
2021/07/15 05:58:30;;;;;;;2.00;0.20;;;16.20;99.90;;;;;;5053752;28;20021;-70
2021/07/15 06:00:56;;;;;;;1.70;0.20;;;16.30;99.90;;;;;;5052910;28;20029;-69
2021/07/15 06:03:21;;;;;;;0.30;0.25;;;16.30;99.90;;;;;;5053952;28;20398;-70
2021/07/15 06:05:47;;;;;;;0.57;0.20;;;16.40;99.90;;;;;;5053572;28;20025;-69
2021/07/15 06:08:13;;;;;;;0.35;0.20;;;16.40;99.90;;;;;;5053679;28;20937;-69
2021/07/15 06:10:38;;;;;;;0.85;0.15;;;16.50;99.90;;;;;;5052125;28;20040;-69
2021/07/15 06:13:04;;;;;;;1.08;0.25;;;16.50;99.90;;;;;;5053975;28;20414;-69
2021/07/15 06:15:31;;;;;;;0.10;0.10;;;16.50;99.90;;;;;;5053474;28;20036;-70
2021/07/15 06:17:56;;;;;;;2.63;0.20;;;16.60;99.90;;;;;;5053030;28;20033;-70
2021/07/15 06:20:22;;;;;;;0.57;0.20;;;16.60;99.90;;;;;;5054107;28;20139;-70
2021/07/15 06:22:48;;;;;;;0.30;0.10;;;16.70;99.90;;;;;;5052799;28;20449;-70
2021/07/15 06:25:14;;;;;;;1.98;0.50;;;16.70;99.90;;;;;;5053272;28;20039;-70
2021/07/15 06:27:41;;;;;;;0.68;0.30;;;16.70;99.90;;;;;;5052828;28;20032;-70
2021/07/15 06:30:08;;;;;;;1.80;0.30;;;16.70;99.90;;;;;;5053688;28;20438;-68
2021/07/15 06:32:35;;;;;;;1.00;0.15;;;16.80;99.90;;;;;;5052873;28;20040;-68
2021/07/15 06:35:01;;;;;;;1.50;0.30;;;16.90;99.90;;;;;;5053134;28;20037;-68
2021/07/15 06:37:34;;;;;;;2.40;0.20;;;17.00;99.90;;;;;;5053331;28;20037;-69
2021/07/15 06:40:03;;;;;;;1.55;0.10;;;17.10;99.90;;;;;;5046087;28;20031;-70
2021/07/15 06:42:28;;;;;;;1.98;0.28;;;17.30;99.90;;;;;;5053589;28;20454;-70
2021/07/15 06:44:54;;;;;;;2.45;0.20;;;17.40;99.90;;;;;;5048907;28;20064;-69
2021/07/15 06:47:20;;;;;;;0.70;0.30;;;17.60;99.90;;;;;;5053188;28;20065;-69
2021/07/15 06:49:45;;;;;;;0.30;0.20;;;17.70;99.90;;;;;;5052585;28;20029;-70
2021/07/15 06:52:11;;;;;;;2.75;0.45;;;17.80;99.90;;;;;;5053365;28;20025;-74
2021/07/15 06:54:37;;;;;;;1.80;0.40;;;17.80;99.90;;;;;;5051091;28;20040;-70
2021/07/15 06:57:03;;;;;;;1.20;0.30;;;17.80;99.90;;;;;;5050701;28;20502;-70
2021/07/15 06:59:28;;;;;;;0.82;0.30;;;17.80;99.90;;;;;;5049698;28;20355;-69
2021/07/15 07:01:54;;;;;;;1.90;0.77;;;17.70;99.90;;;;;;5050119;28;20029;-70
2021/07/15 07:04:20;;;;;;;1.17;0.50;;;17.70;99.90;;;;;;5052141;28;20024;-69
2021/07/15 07:06:45;;;;;;;1.45;0.20;;;17.60;99.90;;;;;;5052602;28;20083;-69
2021/07/15 07:09:11;;;;;;;1.65;0.22;;;17.60;99.90;;;;;;5052786;28;20100;-69
2021/07/15 07:11:36;;;;;;;0.65;0.20;;;17.50;99.90;;;;;;5052901;28;20025;-69
2021/07/15 07:14:02;;;;;;;1.75;0.30;;;17.60;99.90;;;;;;5053079;28;20378;-69
2021/07/15 07:16:28;;;;;;;2.50;0.20;;;17.50;99.90;;;;;;5051664;28;20458;-69
2021/07/15 07:18:54;;;;;;;2.70;0.30;;;17.50;99.90;;;;;;5052626;28;20844;-70
2021/07/15 07:21:19;;;;;;;1.65;0.30;;;17.40;99.90;;;;;;5052873;28;20494;-69
2021/07/15 07:23:45;;;;;;;1.02;0.30;;;17.50;99.90;;;;;;5051264;28;20025;-69
2021/07/15 07:26:11;;;;;;;0.90;0.20;;;17.60;99.90;;;;;;5053268;28;20025;-69
2021/07/15 07:28:37;;;;;;;0.25;0.25;;;17.70;99.90;;;;;;5052535;28;20136;-70
2021/07/15 07:31:03;;;;;;;1.50;0.30;;;17.80;99.90;;;;;;5051951;28;20460;-69
2021/07/15 07:33:28;;;;;;;1.05;0.30;;;17.90;99.90;;;;;;5051925;28;20083;-69
2021/07/15 07:35:54;;;;;;;1.08;0.20;;;17.90;99.90;;;;;;5052173;28;20849;-69
2021/07/15 07:38:20;;;;;;;0.30;0.20;;;17.90;99.90;;;;;;5052755;28;20463;-70
2021/07/15 07:40:46;;;;;;;0.43;0.10;;;17.90;99.90;;;;;;5051161;28;20028;-70
2021/07/15 07:43:11;;;;;;;0.77;0.22;;;17.90;99.90;;;;;;5052380;28;20075;-70
2021/07/15 07:45:37;;;;;;;1.75;0.35;;;17.90;99.90;;;;;;5051970;28;20036;-70
2021/07/15 07:48:03;;;;;;;0.90;0.50;;;17.80;99.90;;;;;;5051579;28;20029;-70
2021/07/15 07:50:29;;;;;;;1.40;0.28;;;17.80;99.90;;;;;;5052968;28;20085;-69
2021/07/15 07:52:57;;;;;;;2.22;0.47;;;17.80;99.90;;;;;;5051759;28;20025;-70
2021/07/15 07:55:23;;;;;;;1.88;0.30;;;17.80;99.90;;;;;;5051498;28;20053;-70
2021/07/15 07:57:49;;;;;;;1.85;0.40;;;17.80;99.90;;;;;;5051279;28;20360;-70
2021/07/15 08:00:17;;;;;;;0.73;0.35;;;18.00;99.90;;;;;;5052359;28;20032;-70
2021/07/15 08:02:44;;;;;;;0.85;0.22;;;18.10;99.90;;;;;;5050913;28;20025;-70
2021/07/15 08:05:12;;;;;;;2.42;0.30;;;18.30;99.90;;;;;;5051688;28;20044;-70
2021/07/15 08:07:39;;;;;;;1.83;0.40;;;18.40;99.90;;;;;;5051622;28;20033;-70
2021/07/15 08:10:07;;;;;;;1.15;0.20;;;18.60;99.90;;;;;;5051353;28;20029;-69
2021/07/15 08:12:33;;;;;;;1.10;0.38;;;18.70;99.90;;;;;;5043825;28;20114;-69
2021/07/15 08:14:59;;;;;;;0.35;0.22;;;18.80;99.90;;;;;;5050668;28;20106;-70
2021/07/15 08:17:24;;;;;;;1.83;0.38;;;18.90;99.90;;;;;;5051763;28;20031;-69
2021/07/15 08:19:50;;;;;;;0.20;0.20;;;19.10;99.90;;;;;;5049983;28;20540;-70
2021/07/15 08:22:16;;;;;;;0.63;0.20;;;19.10;99.90;;;;;;5051269;28;20032;-69
2021/07/15 08:24:42;;;;;;;0.77;0.20;;;19.20;99.90;;;;;;5050766;28;20032;-70
2021/07/15 08:27:08;;;;;;;0.80;0.30;;;19.40;99.90;;;;;;5051422;28;20036;-69
2021/07/15 08:29:34;;;;;;;0.60;0.20;;;19.50;99.90;;;;;;5051037;28;20056;-70
2021/07/15 08:31:59;;;;;;;1.55;0.20;;;19.60;99.90;;;;;;5050799;28;20111;-69
2021/07/15 08:34:26;;;;;;;1.27;0.20;;;19.80;99.50;;;;;;5050177;28;20124;-69
2021/07/15 08:36:52;;;;;;;2.30;0.20;;;19.90;98.80;;;;;;5050535;28;20095;-69
2021/07/15 08:39:18;;;;;;;1.95;0.10;;;20.10;96.40;;;;;;5050883;28;20029;-69
2021/07/15 08:41:45;;;;;;;2.83;0.40;;;20.20;97.40;;;;;;5050406;28;20064;-69
2021/07/15 08:44:13;;;;;;;1.05;0.30;;;20.20;97.40;;;;;;5050568;28;20049;-69
2021/07/15 08:46:40;;;;;;;2.17;0.30;;;20.30;96.90;;;;;;5050543;28;20360;-70
2021/07/15 08:49:07;;;;;;;2.17;0.40;;;20.30;96.50;;;;;;5050795;28;20032;-70
2021/07/15 08:51:33;;;;;;;1.13;0.43;;;20.20;96.90;;;;;;5051461;28;20028;-69
2021/07/15 08:53:59;;;;;;;5.35;0.60;;;20.10;97.00;;;;;;5050072;28;20179;-70
2021/07/15 08:56:37;;;;;;;3.85;0.40;;;20.00;98.20;;;;;;5049471;28;20041;-69
2021/07/15 08:59:06;;;;;;;1.05;0.40;;;19.90;98.30;;;;;;5050724;28;20460;-69
2021/07/15 09:01:34;;;;;;;2.97;0.70;;;19.90;98.30;;;;;;5050475;28;20033;-69
2021/07/15 09:04:01;;;;;;;0.90;0.35;;;19.80;97.80;;;;;;5041372;28;20023;-69
2021/07/15 09:06:27;;;;;;;3.92;0.50;;;19.70;99.10;;;;;;5050791;28;20411;-69
2021/07/15 09:08:55;;;;;;;0.30;0.25;;;19.70;99.40;;;;;;5049554;28;20394;-69
2021/07/15 09:11:21;;;;;;;4.57;0.43;;;19.90;98.30;;;;;;5050899;28;20033;-69
2021/07/15 09:13:48;;;;;;;3.28;0.30;;;20.10;98.50;;;;;;5050408;28;20029;-69
2021/07/15 09:16:14;;;;;;;0.80;0.38;;;20.10;97.60;;;;;;5050973;28;20095;-69
2021/07/15 09:18:58;;;;;;;3.50;0.50;;;20.10;97.40;;;;;;5050337;28;20061;-70
2021/07/15 09:21:30;;;;;;;3.08;0.52;;;20.20;98.40;;;;;;5049554;28;20029;-70
2021/07/15 09:23:56;;;;;;;5.10;0.45;;;20.20;96.30;;;;;;5049813;28;20033;-70
2021/07/15 09:26:22;;;;;;;0.82;0.32;;;20.10;97.60;;;;;;5049572;28;20035;-69
2021/07/15 09:28:48;;;;;;;5.80;0.57;;;20.00;98.10;;;;;;5050154;28;20099;-70
2021/07/15 09:31:19;;;;;;;2.85;0.40;;;19.90;97.70;;;;;;5050562;28;20086;-69
2021/07/15 09:33:46;;;;;;;2.78;0.60;;;19.90;98.10;;;;;;5049719;28;20090;-69
2021/07/15 09:36:14;;;;;;;2.55;0.60;;;19.80;98.60;;;;;;5050343;28;20041;-69
2021/07/15 09:38:40;;;;;;;0.88;0.40;;;19.80;99.20;;;;;;5050086;28;20040;-70
2021/07/15 09:41:06;;;;;;;1.50;0.50;;;19.80;97.80;;;;;;5049701;28;20044;-69
2021/07/15 09:43:35;;;;;;;2.25;0.40;;;19.70;98.40;;;;;;5050595;28;20025;-70
2021/07/15 09:46:22;;;;;;;2.95;0.52;;;19.40;99.90;;;;;;5050567;28;20078;-69
2021/07/15 09:49:07;;;;;;;6.22;0.45;;;19.20;99.90;;;;;;5053488;28;20059;-69
2021/07/15 09:51:42;;;;;;;3.08;0.40;;;19.10;99.90;;;;;;5053998;28;20382;-69
2021/07/15 09:54:09;;;;;;;3.30;0.43;;;19.00;99.90;;;;;;5054292;28;20021;-70
2021/07/15 09:56:44;;;;;;;0.70;0.30;;;19.00;99.90;;;;;;5054200;28;20048;-69
2021/07/15 09:59:10;;;;;;;3.70;0.30;;;19.10;99.90;;;;;;5054411;28;20044;-69
2021/07/15 10:01:49;;;;;;;0.50;0.32;;;19.20;99.90;;;;;;5053592;28;20386;-69
2021/07/15 10:04:28;;;;;;;1.20;0.40;;;19.30;99.90;;;;;;5053791;28;20037;-69
2021/07/15 10:06:57;;;;;;;1.63;0.52;;;19.50;99.90;;;;;;5053070;28;20095;-69
2021/07/15 10:09:30;;;;;;;3.63;0.40;;;19.70;99.90;;;;;;5053415;28;20193;-70
2021/07/15 10:11:56;;;;;;;1.88;0.30;;;19.90;99.90;;;;;;5052769;28;20037;-70
2021/07/15 10:14:42;;;;;;;0.57;0.20;;;19.90;99.90;;;;;;5053937;28;20040;-70
2021/07/15 10:17:08;;;;;;;1.15;0.40;;;19.90;99.90;;;;;;5053171;28;20029;-71
2021/07/15 10:19:34;;;;;;;2.15;0.30;;;20.00;99.90;;;;;;5053871;28;20403;-69
2021/07/15 10:22:08;;;;;;;0.85;0.50;;;20.20;99.90;;;;;;5052790;28;20760;-69
2021/07/15 10:24:34;;;;;;;1.10;0.50;;;20.40;99.90;;;;;;5053417;28;20155;-70
2021/07/15 10:27:06;;;;;;;1.75;0.47;;;20.70;99.90;;;;;;5052905;28;20056;-71
2021/07/15 10:29:32;;;;;;;1.48;0.45;;;20.80;99.10;;;;;;5053346;28;20029;-70
2021/07/15 10:31:59;;;;;;;1.55;0.55;;;20.70;98.10;;;;;;5053087;28;20036;-70
2021/07/15 10:34:28;;;;;;;0.50;0.50;;;20.60;97.70;;;;;;5053925;28;20040;-70
2021/07/15 10:36:57;;;;;;;2.97;0.52;;;20.60;98.00;;;;;;5052745;28;20115;-71
2021/07/15 10:39:26;;;;;;;2.10;0.40;;;20.50;99.50;;;;;;5053362;28;20526;-70
2021/07/15 10:41:54;;;;;;;2.83;0.70;;;20.60;99.80;;;;;;5052342;28;20043;-70
2021/07/15 10:44:21;;;;;;;2.42;0.68;;;20.70;99.90;;;;;;5053500;28;20090;-70
2021/07/15 10:46:47;;;;;;;2.05;0.55;;;20.70;99.90;;;;;;5052271;28;20127;-70
2021/07/15 10:49:13;;;;;;;1.92;0.50;;;20.70;99.00;;;;;;5053252;28;20090;-70
2021/07/15 10:51:43;;;;;;;3.97;0.75;;;20.70;99.90;;;;;;5052999;28;20021;-70
2021/07/15 10:54:09;;;;;;;1.25;0.77;;;20.70;99.90;;;;;;5053016;28;20028;-68
2021/07/15 10:56:35;;;;;;;1.27;0.60;;;20.70;99.90;;;;;;5052676;28;20044;-69
2021/07/15 10:59:01;;;;;;;0.63;0.28;;;20.80;99.90;;;;;;5051732;28;20064;-69
2021/07/15 11:01:51;;;;;;;0.88;0.40;;;21.00;99.50;;;;;;5052900;28;20033;-68
2021/07/15 11:04:21;;;;;;;1.52;0.30;;;21.00;99.60;;;;;;5045530;28;20032;-70
2021/07/15 11:06:52;;;;;;;1.45;0.40;;;21.20;99.10;;;;;;5051690;28;20068;-70
2021/07/15 11:09:23;;;;;;;2.70;0.73;;;21.40;98.40;;;;;;5053633;28;20029;-70
2021/07/15 11:11:51;;;;;;;2.90;0.57;;;21.60;98.30;;;;;;5051889;28;20025;-70
2021/07/15 11:14:38;;;;;;;0.40;0.40;;;21.80;95.60;;;;;;5052901;28;20017;-70
2021/07/15 11:17:21;;;;;;;0.63;0.32;;;21.90;96.00;;;;;;5051688;28;20032;-70
2021/07/15 11:20:02;;;;;;;1.42;0.52;;;22.20;94.70;;;;;;5051663;28;20033;-69
2021/07/15 11:23:23;;;;;;;2.03;0.50;;;22.20;93.20;;;;;;5052265;28;20478;-70
2021/07/15 11:25:48;;;;;;;3.10;0.57;;;22.30;93.50;;;;;;5041286;28;20041;-69
2021/07/15 11:28:15;;;;;;;2.00;0.40;;;22.40;91.60;;;;;;5052837;28;20374;-70
2021/07/15 11:30:43;;;;;;;2.70;0.30;;;22.30;91.40;;;;;;5052637;28;20364;-70
2021/07/15 11:36:07;;;;;;;0.95;0.35;;;22.20;90.60;;;;;;5051990;28;20049;-70
2021/07/15 11:38:58;;;;;;;0.57;0.30;;;22.20;91.10;;;;;;5052234;28;20163;-70
2021/07/15 11:41:43;;;;;;;1.42;0.30;;;22.20;91.50;;;;;;5051388;28;20036;-70
2021/07/15 11:44:09;;;;;;;2.53;0.20;;;22.40;92.00;;;;;;5051656;28;20029;-70
2021/07/15 11:46:36;;;;;;;0.80;0.25;;;22.40;89.50;;;;;;5051627;28;20029;-70
2021/07/15 11:49:10;;;;;;;4.45;0.28;;;22.40;89.20;;;;;;5051450;28;20025;-70
2021/07/15 11:52:01;;;;;;;0.55;0.40;;;22.50;89.60;;;;;;5052317;28;20036;-69
2021/07/15 11:54:47;;;;;;;0.90;0.20;;;22.70;87.50;;;;;;5051799;28;20044;-69
2021/07/15 11:57:13;;;;;;;0.30;0.30;;;22.60;85.20;;;;;;5050947;28;20049;-69
2021/07/15 11:59:41;;;;;;;0.20;0.20;;;22.50;87.10;;;;;;5052154;28;20032;-69
2021/07/15 12:02:24;;;;;;;0.90;0.38;;;22.30;87.50;;;;;;5050887;28;20025;-69
2021/07/15 12:05:15;;;;;;;1.08;0.50;;;22.20;90.20;;;;;;5050696;28;20192;-69
2021/07/15 12:08:01;;;;;;;0.93;0.30;;;22.10;91.10;;;;;;5051442;28;20035;-69
2021/07/15 12:10:29;;;;;;;0.22;0.22;;;22.00;90.40;;;;;;5046683;28;20028;-70
2021/07/15 12:12:59;;;;;;;0.52;0.30;;;21.80;90.60;;;;;;5050229;28;20072;-70
2021/07/15 12:15:27;;;;;;;0.50;0.40;;;21.80;91.10;;;;;;5051855;28;20044;-70
2021/07/15 12:17:55;;;;;;;0.40;0.30;;;21.70;91.50;;;;;;5050769;28;20029;-70
2021/07/15 12:20:23;;;;;;;0.85;0.30;;;21.60;91.00;;;;;;5051531;28;20056;-70
2021/07/15 12:22:55;;;;;;;4.05;0.75;;;21.40;91.10;;;;;;5050462;28;20025;-70
2021/07/15 12:25:29;;;;;;;0.52;0.32;;;21.40;91.50;;;;;;5051168;28;20486;-70
2021/07/15 12:27:59;;;;;;;0.60;0.25;;;21.40;91.80;;;;;;5050231;28;20090;-70
2021/07/15 12:30:48;;;;;;;1.00;0.67;;;21.60;91.30;;;;;;5051462;28;20029;-69
2021/07/15 12:33:15;;;;;;;0.60;0.30;;;21.90;90.20;;;;;;5051101;28;20033;-70
2021/07/15 12:35:43;;;;;;;0.63;0.20;;;22.20;90.80;;;;;;5051070;28;20032;-70
2021/07/15 12:38:16;;;;;;;0.30;0.20;;;22.50;88.60;;;;;;5050124;28;20067;-70
2021/07/15 12:40:42;;;;;;;0.20;0.20;;;22.90;85.50;;;;;;5050804;28;20031;-70
2021/07/15 12:43:12;;;;;;;0.22;0.20;;;23.00;83.80;;;;;;5050715;28;20344;-70
2021/07/15 12:45:38;;;;;;;0.30;0.20;;;23.10;81.30;;;;;;5050891;28;20105;-71
2021/07/15 12:48:08;;;;;;;1.30;0.30;;;22.90;82.90;;;;;;5049784;28;20538;-70
2021/07/15 12:50:35;;;;;;;1.00;0.30;;;22.90;83.70;;;;;;5051141;28;20119;-70
2021/07/15 12:53:14;;;;;;;0.30;0.30;;;23.00;82.10;;;;;;5050191;28;20056;-69
2021/07/15 12:55:41;;;;;;;0.30;0.30;;;23.10;80.90;;;;;;5045000;28;20048;-69
2021/07/15 12:58:07;;;;;;;1.35;0.40;;;23.10;82.10;;;;;;5050623;28;20118;-70
2021/07/15 13:00:35;;;;;;;0.40;0.30;;;23.30;81.50;;;;;;5050876;28;20036;-69
2021/07/15 13:03:02;;;;;;;0.70;0.30;;;23.50;80.60;;;;;;5050159;28;20466;-69